Ford, Washington
Current Conditions -  °F | °C
As of 5:05 PM on Thursday 18 Dec 2014 (Local Time) from KDEW Reporting Station
Haze Haze  
Wind Chill: 36°   Ceiling: 4200
Heat Index: 36°   Visibility: 6mi
Dew Point: 34°   Wind: 3mph
Humidity: 93%   Direction: 350°N
Pressure: 29.97"   Gusts: NA
Location:  47.91°N, 117.81°W
Report Text: KDEW 190105Z AUTO 35003KT 6SM BR FEW015 SCT026 OVC042 02/01 A2997 RMK AO2 T00220011
Loading
Personal Weather Stations






























Interactive Weather Map New forecast layout! Learn more

10-Day Weather Forecast

Advertisements
Track Severe Weather on mobile